createdAt,value
2018-12-07T00:00:50.006Z,12.90
2018-12-07T00:03:17.602Z,12.90
2018-12-07T00:05:45.810Z,12.90
2018-12-07T00:08:13.401Z,12.90
2018-12-07T00:10:40.990Z,12.90
2018-12-07T00:13:08.599Z,13.00
2018-12-07T00:15:36.181Z,13.00
2018-12-07T00:18:04.229Z,12.90
2018-12-07T00:20:31.812Z,12.90
2018-12-07T00:23:00.160Z,12.90
2018-12-07T00:25:27.778Z,12.90
2018-12-07T00:27:55.438Z,12.90
2018-12-07T00:30:23.103Z,12.90
2018-12-07T00:32:50.685Z,12.90
2018-12-07T00:35:18.286Z,12.80
2018-12-07T00:37:45.894Z,12.80
2018-12-07T00:40:13.474Z,12.80
2018-12-07T00:42:42.096Z,12.70
2018-12-07T00:45:09.935Z,12.70
2018-12-07T00:47:37.512Z,12.70
2018-12-07T00:50:05.127Z,12.80
2018-12-07T00:52:32.710Z,12.80
2018-12-07T00:55:01.159Z,12.80
2018-12-07T00:57:29.508Z,12.80
2018-12-07T00:59:57.095Z,12.70
2018-12-07T01:02:25.965Z,12.70
2018-12-07T01:04:53.559Z,12.70
2018-12-07T01:07:21.212Z,12.70
2018-12-07T01:09:49.586Z,12.70
2018-12-07T01:12:17.934Z,12.70
2018-12-07T01:14:45.598Z,12.70
2018-12-07T01:17:13.185Z,12.70
2018-12-07T01:19:41.536Z,12.60
2018-12-07T01:22:10.271Z,12.60
2018-12-07T01:24:37.859Z,12.60
2018-12-07T01:27:05.433Z,12.70
2018-12-07T01:29:33.050Z,12.70
2018-12-07T01:32:01.399Z,12.60
2018-12-07T01:34:29.376Z,12.60
2018-12-07T01:36:56.959Z,12.60
2018-12-07T01:39:25.310Z,12.50
2018-12-07T01:41:52.926Z,12.50
2018-12-07T01:44:20.513Z,12.50
2018-12-07T01:46:48.172Z,12.60
2018-12-07T01:49:15.770Z,12.60
2018-12-07T01:51:43.355Z,12.60
2018-12-07T01:54:11.741Z,12.60
2018-12-07T01:56:39.335Z,12.60
2018-12-07T01:59:07.232Z,12.60
2018-12-07T02:01:34.820Z,12.50
2018-12-07T02:04:03.174Z,12.60
2018-12-07T02:06:30.784Z,12.70
2018-12-07T02:08:58.371Z,12.70
2018-12-07T02:11:26.021Z,12.80
2018-12-07T02:13:53.620Z,12.80
2018-12-07T02:16:21.196Z,12.70
2018-12-07T02:18:48.809Z,12.70
2018-12-07T02:21:16.388Z,12.70
2018-12-07T02:23:44.049Z,12.60
2018-12-07T02:26:11.659Z,12.60
2018-12-07T02:28:40.017Z,12.50
2018-12-07T02:31:07.639Z,12.50
2018-12-07T02:33:35.214Z,12.50
2018-12-07T02:36:03.566Z,12.60
2018-12-07T02:38:31.247Z,12.60
2018-12-07T02:40:58.730Z,12.60
2018-12-07T02:43:26.333Z,12.50
2018-12-07T02:45:54.697Z,12.40
2018-12-07T02:48:22.779Z,12.40
2018-12-07T02:50:51.136Z,12.30
2018-12-07T02:53:18.719Z,12.30
2018-12-07T02:55:47.096Z,12.30
2018-12-07T02:58:14.692Z,12.30
2018-12-07T03:00:42.354Z,12.30
2018-12-07T03:03:09.945Z,12.20
2018-12-07T03:05:37.523Z,12.20
2018-12-07T03:08:05.152Z,12.20
2018-12-07T03:10:32.749Z,12.20
2018-12-07T03:13:01.545Z,12.20
2018-12-07T03:15:29.137Z,12.20
2018-12-07T03:17:56.731Z,12.10
2018-12-07T03:20:24.373Z,12.10
2018-12-07T03:22:51.922Z,12.10
2018-12-07T03:25:19.594Z,12.00
2018-12-07T03:27:47.183Z,12.00
2018-12-07T03:30:14.778Z,12.00
2018-12-07T03:32:42.722Z,12.00
2018-12-07T03:35:10.302Z,12.00
2018-12-07T03:37:37.894Z,12.00
2018-12-07T03:40:06.269Z,12.00
2018-12-07T03:42:34.616Z,12.00
2018-12-07T03:45:02.300Z,12.00
2018-12-07T03:47:29.895Z,12.00
2018-12-07T03:49:57.490Z,12.10
2018-12-07T03:52:25.100Z,12.10
2018-12-07T03:54:54.047Z,12.10
2018-12-07T03:57:21.771Z,12.10
2018-12-07T03:59:49.333Z,12.00
2018-12-07T04:02:16.918Z,12.00
2018-12-07T04:04:44.531Z,12.00
2018-12-07T04:07:12.112Z,11.90
2018-12-07T04:09:41.073Z,11.90
2018-12-07T04:12:08.669Z,11.90
2018-12-07T04:14:36.257Z,11.90
2018-12-07T04:17:03.922Z,12.00
2018-12-07T04:19:31.519Z,12.00
2018-12-07T04:21:59.096Z,12.00
2018-12-07T04:24:27.433Z,12.00
2018-12-07T04:26:55.012Z,12.10
2018-12-07T04:29:22.596Z,12.10
2018-12-07T04:31:50.227Z,12.00
2018-12-07T04:34:17.813Z,12.00
2018-12-07T04:36:45.408Z,12.00
2018-12-07T04:39:13.778Z,12.00
2018-12-07T04:41:41.376Z,12.00
2018-12-07T04:44:08.958Z,12.00
2018-12-07T04:46:36.955Z,11.90
2018-12-07T04:49:04.539Z,11.90
2018-12-07T04:51:32.894Z,11.80
2018-12-07T04:54:01.276Z,11.80
2018-12-07T04:56:28.867Z,11.80
2018-12-07T04:58:56.464Z,11.90
2018-12-07T05:01:24.990Z,11.90
2018-12-07T05:03:52.578Z,11.90
2018-12-07T05:06:20.163Z,11.80
2018-12-07T05:08:47.798Z,11.80
2018-12-07T05:11:15.380Z,11.70
2018-12-07T05:13:42.967Z,11.70
2018-12-07T05:16:10.575Z,11.70
2018-12-07T05:18:38.934Z,11.80
2018-12-07T05:21:07.022Z,11.80
2018-12-07T05:23:35.387Z,11.80
2018-12-07T05:26:02.984Z,11.80
2018-12-07T05:28:31.355Z,12.00
2018-12-07T05:31:01.533Z,12.10
2018-12-07T05:33:27.913Z,12.10
2018-12-07T05:35:56.263Z,11.90
2018-12-07T05:38:23.848Z,11.90
2018-12-07T05:40:52.231Z,11.80
2018-12-07T05:43:19.837Z,11.80
2018-12-07T05:45:47.734Z,11.80
2018-12-07T05:48:15.336Z,11.70
2018-12-07T05:50:42.935Z,11.70
2018-12-07T05:53:10.532Z,11.80
2018-12-07T05:55:38.144Z,11.70
2018-12-07T05:58:05.795Z,11.70
2018-12-07T06:00:33.391Z,11.60
2018-12-07T06:03:00.992Z,11.60
2018-12-07T06:05:28.608Z,11.60
2018-12-07T06:07:56.196Z,11.70
2018-12-07T06:10:23.898Z,11.70
2018-12-07T06:12:51.487Z,11.60
2018-12-07T06:15:19.073Z,11.60
2018-12-07T06:17:46.693Z,11.50
2018-12-07T06:20:14.293Z,11.50
2018-12-07T06:22:42.382Z,11.50
2018-12-07T06:25:09.966Z,11.40
2018-12-07T06:27:38.312Z,11.40
2018-12-07T06:30:05.920Z,11.40
2018-12-07T06:32:36.305Z,11.40
2018-12-07T06:35:01.133Z,11.40
2018-12-07T06:37:29.488Z,11.40
2018-12-07T06:39:57.072Z,11.30
2018-12-07T06:42:25.457Z,11.30
2018-12-07T06:44:54.393Z,11.30
2018-12-07T06:47:22.594Z,11.30
2018-12-07T06:49:50.181Z,11.30
2018-12-07T06:52:18.532Z,11.30
2018-12-07T06:54:46.136Z,11.20
2018-12-07T06:57:13.728Z,11.20
2018-12-07T06:59:41.741Z,11.30
2018-12-07T07:02:09.335Z,11.40
2018-12-07T07:04:36.930Z,11.30
2018-12-07T07:07:05.366Z,11.30
2018-12-07T07:09:32.901Z,11.30
2018-12-07T07:12:00.968Z,11.20
2018-12-07T07:14:28.551Z,11.20
2018-12-07T07:16:57.195Z,11.20
2018-12-07T07:19:24.835Z,11.20
2018-12-07T07:21:53.153Z,11.10
2018-12-07T07:24:20.784Z,11.10
2018-12-07T07:26:48.365Z,11.10
2018-12-07T07:29:15.947Z,11.10
2018-12-07T07:31:43.842Z,11.10
2018-12-07T07:34:11.147Z,11.10
2018-12-07T07:36:38.784Z,11.10
2018-12-07T07:39:06.380Z,11.10
2018-12-07T07:41:33.969Z,11.10
2018-12-07T07:44:02.368Z,11.20
2018-12-07T07:46:30.737Z,11.30
2018-12-07T07:48:59.492Z,11.30
2018-12-07T07:51:26.737Z,11.30
2018-12-07T07:53:54.322Z,11.20
2018-12-07T07:56:21.928Z,11.20
2018-12-07T07:58:49.504Z,11.20
2018-12-07T08:01:18.109Z,11.30
2018-12-07T08:03:45.695Z,11.20
2018-12-07T08:06:13.275Z,11.20
2018-12-07T08:08:40.880Z,11.10
2018-12-07T08:11:08.481Z,11.10
2018-12-07T08:13:36.148Z,11.10
2018-12-07T08:16:03.702Z,11.00
2018-12-07T08:18:31.289Z,11.00
2018-12-07T08:20:59.668Z,11.00
2018-12-07T08:23:27.259Z,10.90
2018-12-07T08:25:54.895Z,11.00
2018-12-07T08:28:23.258Z,10.90
2018-12-07T08:30:53.677Z,10.90
2018-12-07T08:33:21.268Z,10.90
2018-12-07T08:35:48.845Z,11.00
2018-12-07T08:38:16.464Z,11.10
2018-12-07T08:40:44.044Z,11.10
2018-12-07T08:43:12.411Z,11.10
2018-12-07T08:45:39.986Z,11.10
2018-12-07T08:48:08.397Z,11.10
2018-12-07T08:50:35.975Z,11.10
2018-12-07T08:53:03.551Z,11.00
2018-12-07T08:55:31.162Z,10.90
2018-12-07T08:57:59.515Z,10.90
2018-12-07T09:00:27.181Z,10.90
2018-12-07T09:02:54.767Z,10.90
2018-12-07T09:05:22.365Z,10.90
2018-12-07T09:07:49.981Z,10.90
2018-12-07T09:10:17.547Z,10.90
2018-12-07T09:12:46.430Z,10.90
2018-12-07T09:15:14.794Z,10.90
2018-12-07T09:17:42.372Z,10.80
2018-12-07T09:20:10.752Z,10.90
2018-12-07T09:22:38.329Z,10.90
2018-12-07T09:25:06.267Z,10.80
2018-12-07T09:27:33.848Z,10.90
2018-12-07T09:30:02.219Z,11.00
2018-12-07T09:32:30.596Z,11.00
2018-12-07T09:34:58.187Z,11.00
2018-12-07T09:37:26.126Z,11.00
2018-12-07T09:39:53.734Z,11.00
2018-12-07T09:42:21.324Z,11.00
2018-12-07T09:44:48.939Z,11.00
2018-12-07T09:47:16.525Z,11.00
2018-12-07T09:49:44.950Z,11.10
2018-12-07T09:52:13.017Z,11.10
2018-12-07T09:54:40.586Z,11.10
2018-12-07T09:57:08.190Z,11.10
2018-12-07T09:59:35.768Z,11.10
2018-12-07T10:02:03.721Z,11.10
2018-12-07T10:04:31.300Z,11.10
2018-12-07T10:06:58.879Z,11.00
2018-12-07T10:09:26.489Z,11.00
2018-12-07T10:11:54.833Z,11.00
2018-12-07T10:14:22.805Z,11.00
2018-12-07T10:16:50.423Z,11.00
2018-12-07T10:19:18.023Z,11.20
2018-12-07T10:21:45.655Z,11.20
2018-12-07T10:24:13.241Z,11.20
2018-12-07T10:26:41.225Z,11.30
2018-12-07T10:29:09.069Z,11.30
2018-12-07T10:31:36.650Z,11.30
2018-12-07T10:34:04.254Z,11.30
2018-12-07T10:36:31.842Z,11.30
2018-12-07T10:38:59.477Z,11.30
2018-12-07T10:41:27.092Z,11.40
2018-12-07T10:43:54.629Z,11.30
2018-12-07T10:46:22.237Z,11.30
2018-12-07T10:48:49.819Z,11.20
2018-12-07T10:51:18.211Z,11.20
2018-12-07T10:53:45.800Z,11.20
2018-12-07T10:56:13.382Z,11.20
2018-12-07T10:58:40.994Z,11.20
2018-12-07T11:01:26.506Z,11.20
2018-12-07T11:04:12.032Z,11.10
2018-12-07T11:06:48.455Z,11.10
2018-12-07T11:09:33.971Z,11.10
2018-12-07T11:12:19.391Z,11.10
2018-12-07T11:15:05.319Z,11.10
2018-12-07T11:17:50.685Z,11.20
2018-12-07T11:20:33.618Z,11.20
2018-12-07T11:23:19.369Z,11.20
2018-12-07T11:26:05.033Z,11.10
2018-12-07T11:28:51.278Z,11.10
2018-12-07T11:31:36.704Z,11.10
2018-12-07T11:34:04.309Z,11.10
2018-12-07T11:36:31.921Z,11.00
2018-12-07T11:38:59.505Z,11.20
2018-12-07T11:41:27.909Z,11.30
2018-12-07T11:43:55.489Z,11.30
2018-12-07T11:46:23.071Z,11.30
2018-12-07T11:48:50.687Z,11.20
2018-12-07T11:51:18.305Z,11.20
2018-12-07T11:53:45.910Z,11.30
2018-12-07T11:56:13.492Z,11.30
2018-12-07T11:58:41.079Z,11.20
2018-12-07T12:01:08.692Z,11.20
2018-12-07T12:03:36.706Z,11.10
2018-12-07T12:06:04.391Z,11.20
2018-12-07T12:08:31.973Z,11.20
2018-12-07T12:11:00.332Z,11.20
2018-12-07T12:13:27.941Z,11.10
2018-12-07T12:15:55.519Z,11.10
2018-12-07T12:18:23.208Z,11.10
2018-12-07T12:20:50.809Z,11.10
2018-12-07T12:23:18.383Z,11.10
2018-12-07T12:25:45.996Z,11.10
2018-12-07T12:28:13.577Z,11.00
2018-12-07T12:30:42.151Z,11.00
2018-12-07T12:33:09.768Z,10.90
2018-12-07T12:35:38.091Z,10.90
2018-12-07T12:38:05.706Z,10.90
2018-12-07T12:40:33.302Z,11.00
2018-12-07T12:43:00.948Z,10.90
2018-12-07T12:45:28.536Z,10.90
2018-12-07T12:47:56.122Z,10.90
2018-12-07T12:50:36.272Z,11.00
2018-12-07T12:53:04.207Z,11.00
2018-12-07T12:55:31.863Z,11.00
2018-12-07T12:57:59.445Z,11.00
2018-12-07T13:00:27.043Z,11.00
2018-12-07T13:02:54.649Z,11.00
2018-12-07T13:05:22.225Z,11.00
2018-12-07T13:07:49.874Z,11.00
2018-12-07T13:10:17.458Z,11.00
2018-12-07T13:12:45.039Z,11.00
2018-12-07T13:15:12.645Z,11.00
2018-12-07T13:17:40.227Z,11.00
2018-12-07T13:20:07.893Z,11.00
2018-12-07T13:22:35.475Z,11.00
2018-12-07T13:25:03.049Z,11.00
2018-12-07T13:27:30.657Z,11.00
2018-12-07T13:29:58.274Z,11.10
2018-12-07T13:32:26.749Z,11.10
2018-12-07T13:34:54.332Z,11.10
2018-12-07T13:37:22.699Z,11.00
2018-12-07T13:39:50.462Z,11.00
2018-12-07T13:42:17.999Z,11.00
2018-12-07T13:44:45.574Z,11.00
2018-12-07T13:47:13.554Z,10.90
2018-12-07T13:49:40.958Z,10.90
2018-12-07T13:52:08.344Z,10.90
2018-12-07T13:54:35.939Z,10.80
2018-12-07T13:57:03.817Z,10.80
2018-12-07T13:59:31.181Z,10.80
2018-12-07T14:01:58.766Z,10.80
2018-12-07T14:04:26.387Z,10.90
2018-12-07T14:06:53.955Z,11.00
2018-12-07T14:09:22.361Z,10.90
2018-12-07T14:11:51.046Z,10.90
2018-12-07T14:14:18.332Z,10.90
2018-12-07T14:16:46.822Z,10.90
2018-12-07T14:19:15.076Z,10.80
2018-12-07T14:21:43.371Z,10.80
2018-12-07T14:24:10.884Z,10.80
2018-12-07T14:26:38.610Z,10.90
2018-12-07T14:29:06.269Z,10.90
2018-12-07T14:31:33.813Z,11.00
2018-12-07T14:34:01.465Z,10.90
2018-12-07T14:36:29.394Z,10.90
2018-12-07T14:38:57.883Z,10.80
2018-12-07T14:41:24.692Z,10.80
2018-12-07T14:43:52.158Z,10.80
2018-12-07T14:46:19.795Z,10.70
2018-12-07T14:48:47.426Z,10.70
2018-12-07T14:51:14.975Z,10.60
2018-12-07T14:53:43.472Z,10.50
2018-12-07T14:56:11.775Z,10.50
2018-12-07T14:58:39.590Z,10.50
2018-12-07T15:01:06.990Z,10.50
2018-12-07T15:03:34.768Z,10.50
2018-12-07T15:06:02.151Z,10.50
2018-12-07T15:08:29.936Z,10.60
2018-12-07T15:10:58.758Z,10.50
2018-12-07T15:13:26.069Z,10.50
2018-12-07T15:15:53.787Z,10.50
2018-12-07T15:18:21.446Z,10.50
2018-12-07T15:20:49.046Z,10.60
2018-12-07T15:23:17.391Z,10.60
2018-12-07T15:25:45.015Z,10.70
2018-12-07T15:28:12.648Z,10.80
2018-12-07T15:30:40.154Z,10.70
2018-12-07T15:33:07.797Z,10.60
2018-12-07T15:35:36.202Z,10.60
2018-12-07T15:38:03.594Z,10.60
2018-12-07T15:40:31.339Z,10.60
2018-12-07T15:42:58.797Z,10.50
2018-12-07T15:45:26.444Z,10.40
2018-12-07T15:47:54.061Z,10.50
2018-12-07T15:50:25.061Z,10.50
2018-12-07T15:52:49.621Z,10.40
2018-12-07T15:55:17.214Z,10.40
2018-12-07T15:57:46.637Z,10.30
2018-12-07T16:00:14.375Z,10.30
2018-12-07T16:02:41.838Z,10.30
2018-12-07T16:05:09.477Z,10.40
2018-12-07T16:07:37.827Z,10.50
2018-12-07T16:10:05.811Z,10.50
2018-12-07T16:12:34.496Z,10.40
2018-12-07T16:15:01.989Z,10.40
2018-12-07T16:17:30.289Z,10.50
2018-12-07T16:19:58.028Z,10.50
2018-12-07T16:22:25.825Z,10.50
2018-12-07T16:24:54.321Z,10.40
2018-12-07T16:27:21.906Z,10.40
2018-12-07T16:29:49.683Z,10.40
2018-12-07T16:32:17.804Z,10.40
2018-12-07T16:34:45.454Z,10.30
2018-12-07T16:37:14.205Z,10.30
2018-12-07T16:39:42.554Z,10.40
2018-12-07T16:42:10.139Z,10.40
2018-12-07T16:44:38.448Z,10.50
2018-12-07T16:47:06.971Z,10.50
2018-12-07T16:49:35.315Z,10.50
2018-12-07T16:52:03.123Z,10.50
2018-12-07T16:54:30.728Z,10.40
2018-12-07T16:56:58.809Z,10.40
2018-12-07T16:59:26.400Z,10.40
2018-12-07T17:01:56.807Z,10.60
2018-12-07T17:04:25.489Z,10.60
2018-12-07T17:06:52.938Z,10.60
2018-12-07T17:09:20.597Z,10.60
2018-12-07T17:11:48.186Z,10.80
2018-12-07T17:14:15.749Z,10.80
2018-12-07T17:16:43.375Z,10.80
2018-12-07T17:19:11.062Z,10.80
2018-12-07T17:21:38.918Z,10.70
2018-12-07T17:24:06.436Z,10.60
2018-12-07T17:26:34.198Z,10.50
2018-12-07T17:29:01.723Z,10.40
2018-12-07T17:31:29.302Z,10.30
2018-12-07T17:33:57.019Z,10.20
2018-12-07T17:36:25.317Z,10.20
2018-12-07T17:38:52.880Z,10.10
2018-12-07T17:41:21.015Z,10.00
2018-12-07T17:43:48.479Z,9.90
2018-12-07T17:46:16.106Z,9.90
2018-12-07T17:48:44.464Z,9.60
2018-12-07T17:51:12.187Z,9.60
2018-12-07T17:53:39.671Z,9.50
2018-12-07T17:56:07.259Z,9.40
2018-12-07T17:58:34.883Z,9.30
2018-12-07T18:01:02.410Z,9.30
2018-12-07T18:03:29.991Z,9.20
2018-12-07T18:05:57.606Z,9.10
2018-12-07T18:08:25.418Z,9.00
2018-12-07T18:10:52.836Z,9.00
2018-12-07T18:13:21.189Z,8.90
2018-12-07T18:15:48.942Z,8.90
2018-12-07T18:18:16.521Z,8.90
2018-12-07T18:20:43.974Z,8.90
2018-12-07T18:23:11.731Z,8.80
2018-12-07T18:25:39.251Z,8.80
2018-12-07T18:28:07.599Z,8.80
2018-12-07T18:30:35.066Z,8.70
2018-12-07T18:33:02.813Z,8.70
2018-12-07T18:35:31.034Z,8.90
2018-12-07T18:37:58.908Z,8.90
2018-12-07T18:40:26.397Z,8.90
2018-12-07T18:42:54.069Z,8.90
2018-12-07T18:45:21.493Z,8.90
2018-12-07T18:47:49.194Z,8.90
2018-12-07T18:50:17.806Z,8.90
2018-12-07T18:52:45.654Z,8.80
2018-12-07T18:55:13.206Z,8.90
2018-12-07T18:57:40.729Z,8.80
2018-12-07T19:00:08.952Z,8.80
2018-12-07T19:02:36.311Z,8.80
2018-12-07T19:05:04.175Z,8.80
2018-12-07T19:07:32.322Z,8.90
2018-12-07T19:09:59.859Z,8.90
2018-12-07T19:12:27.507Z,8.90
2018-12-07T19:14:56.131Z,8.90
2018-12-07T19:17:23.805Z,8.90
2018-12-07T19:19:51.870Z,8.90
2018-12-07T19:22:19.548Z,8.90
2018-12-07T19:24:47.138Z,8.90
2018-12-07T19:27:14.900Z,8.90
2018-12-07T19:29:42.405Z,8.80
2018-12-07T19:32:10.354Z,8.70
2018-12-07T19:34:37.876Z,8.70
2018-12-07T19:37:05.560Z,8.60
2018-12-07T19:39:33.166Z,8.50
2018-12-07T19:42:02.143Z,8.60
2018-12-07T19:44:29.862Z,8.60
2018-12-07T19:46:57.516Z,8.60
2018-12-07T19:49:25.433Z,8.60
2018-12-07T19:51:52.915Z,8.70
2018-12-07T19:54:20.607Z,8.70
2018-12-07T19:56:48.050Z,8.60
2018-12-07T19:59:16.162Z,8.70
2018-12-07T20:01:43.724Z,8.80
2018-12-07T20:04:11.494Z,8.80
2018-12-07T20:06:38.957Z,8.80
2018-12-07T20:09:06.758Z,8.80
2018-12-07T20:11:34.277Z,8.70
2018-12-07T20:14:01.890Z,8.60
2018-12-07T20:16:30.380Z,8.50
2018-12-07T20:18:57.982Z,8.40
2018-12-07T20:21:25.806Z,8.40
2018-12-07T20:23:53.382Z,8.40
2018-12-07T20:26:21.575Z,8.40
2018-12-07T20:28:49.167Z,8.30
2018-12-07T20:31:16.775Z,8.30
2018-12-07T20:33:44.420Z,8.30
2018-12-07T20:36:12.251Z,8.20
2018-12-07T20:38:39.637Z,8.30
2018-12-07T20:41:07.148Z,8.40
2018-12-07T20:43:34.921Z,8.40
2018-12-07T20:46:02.519Z,8.50
2018-12-07T20:48:31.002Z,8.50
2018-12-07T20:50:59.790Z,8.50
2018-12-07T20:53:27.105Z,8.40
2018-12-07T20:55:54.897Z,8.40
2018-12-07T20:58:22.553Z,8.40
2018-12-07T21:00:59.062Z,8.30
2018-12-07T21:03:18.252Z,8.30
2018-12-07T21:06:41.900Z,8.30
2018-12-07T21:09:21.435Z,8.30
2018-12-07T21:11:48.997Z,8.20
2018-12-07T21:14:16.572Z,8.20
2018-12-07T21:17:12.236Z,8.10
2018-12-07T21:19:39.886Z,8.10
2018-12-07T21:22:07.349Z,8.00
2018-12-07T21:24:35.070Z,8.00
2018-12-07T21:27:03.487Z,8.00
2018-12-07T21:29:31.095Z,8.00
2018-12-07T21:31:58.543Z,8.00
2018-12-07T21:34:32.849Z,7.90
2018-12-07T21:37:00.375Z,7.90
2018-12-07T21:39:29.228Z,8.00
2018-12-07T21:41:56.712Z,8.00
2018-12-07T21:44:24.287Z,8.00
2018-12-07T21:46:52.069Z,8.00
2018-12-07T21:49:19.450Z,8.00
2018-12-07T21:51:50.223Z,7.90
2018-12-07T21:54:18.908Z,7.90
2018-12-07T21:56:46.211Z,7.90
2018-12-07T21:59:14.093Z,7.80
2018-12-07T22:01:41.627Z,7.80
2018-12-07T22:04:09.248Z,7.70
2018-12-07T22:06:38.474Z,7.60
2018-12-07T22:09:06.146Z,7.60
2018-12-07T22:11:33.425Z,7.60
2018-12-07T22:14:00.993Z,7.60
2018-12-07T22:16:28.550Z,7.60
2018-12-07T22:18:56.876Z,7.50
2018-12-07T22:21:24.540Z,7.50
2018-12-07T22:23:53.039Z,7.60
2018-12-07T22:26:21.375Z,7.60
2018-12-07T22:28:48.808Z,7.70
2018-12-07T22:31:16.346Z,7.70
2018-12-07T22:33:44.215Z,7.70
2018-12-07T22:36:12.176Z,7.70
2018-12-07T22:38:39.816Z,7.80
2018-12-07T22:41:07.486Z,7.90
2018-12-07T22:43:34.850Z,7.90
2018-12-07T22:46:02.583Z,7.80
2018-12-07T22:48:30.039Z,7.80
2018-12-07T22:50:57.556Z,7.70
2018-12-07T22:53:25.965Z,7.70
2018-12-07T22:55:53.546Z,7.70
2018-12-07T22:58:22.167Z,7.70
2018-12-07T23:00:49.798Z,7.70
2018-12-07T23:03:17.356Z,7.70
2018-12-07T23:05:44.971Z,7.70
2018-12-07T23:08:12.547Z,7.70
2018-12-07T23:10:40.953Z,7.70
2018-12-07T23:13:08.536Z,7.70
2018-12-07T23:15:36.119Z,7.70
2018-12-07T23:18:03.730Z,7.70
2018-12-07T23:20:31.313Z,7.60
2018-12-07T23:22:58.943Z,7.60
2018-12-07T23:25:26.519Z,7.60
2018-12-07T23:27:54.111Z,7.60
2018-12-07T23:30:22.173Z,7.60
2018-12-07T23:32:49.752Z,7.50
2018-12-07T23:35:17.388Z,7.50
2018-12-07T23:37:44.965Z,7.50
2018-12-07T23:40:12.547Z,7.50
2018-12-07T23:42:40.153Z,7.40
2018-12-07T23:45:08.052Z,7.30
2018-12-07T23:47:35.701Z,7.30
2018-12-07T23:50:03.278Z,7.30
2018-12-07T23:52:30.869Z,7.30
2018-12-07T23:54:58.480Z,7.30
2018-12-07T23:57:26.077Z,7.30
2018-12-07T23:59:53.735Z,7.30
